Time;durP1;ratioP1;P1;durP2;ratioP2;P2;SDS_P1;SDS_P2;PMS_P1;PMS_P2;Temp;Humidity;BMP_temperature;BMP_pressure;BME280_temperature;BME280_humidity;BME280_pressure;Samples;Min_cycle;Max_cycle;Signal;HPM_P1;HPM_P2
2023/11/23 00:02:47;;;;;;;54.30;30.80;;;;;;;-2.63;95.83;100887.89;131418;1298;22691;-82
2023/11/23 00:05:47;;;;;;;60.20;31.80;;;;;;;-2.64;95.66;100877.36;131601;1289;24191;-82
2023/11/23 00:08:49;;;;;;;57.40;31.00;;;;;;;-2.63;95.59;100876.66;131415;1292;23059;-81
2023/11/23 00:11:49;;;;;;;62.40;31.80;;;;;;;-2.61;96.02;100877.95;131388;1289;22778;-81
2023/11/23 00:14:51;;;;;;;63.30;30.40;;;;;;;-2.59;95.76;100873.71;131425;1301;22624;-79
2023/11/23 00:17:52;;;;;;;57.60;30.90;;;;;;;-2.59;95.55;100867.98;131380;1295;22563;-79
2023/11/23 00:20:53;;;;;;;;;;;;;;;-2.59;95.72;100857.59;131089;1298;22646;-83
2023/11/23 00:23:53;;;;;;;57.80;30.60;;;;;;;-2.59;95.77;100853.95;131286;1297;23427;-83
2023/11/23 00:26:54;;;;;;;60.60;30.70;;;;;;;-2.58;95.57;100850.45;130874;1295;22582;-84
2023/11/23 00:29:54;;;;;;;66.20;32.20;;;;;;;-2.56;95.69;100832.84;131180;1291;22999;-80
2023/11/23 00:32:54;;;;;;;58.10;29.10;;;;;;;-2.54;95.68;100826.35;131270;1295;22566;-83
2023/11/23 00:35:55;;;;;;;54.20;29.70;;;;;;;-2.53;95.88;100815.23;131215;1295;22689;-81
2023/11/23 00:38:55;;;;;;;58.50;29.50;;;;;;;-2.53;95.60;100811.08;131011;1298;22569;-82
2023/11/23 00:41:56;;;;;;;56.40;29.70;;;;;;;-2.52;95.67;100811.38;131408;1302;24317;-85
2023/11/23 00:44:56;;;;;;;57.80;29.60;;;;;;;-2.51;95.76;100812.70;131322;1295;22571;-78
2023/11/23 00:47:57;;;;;;;;;;;;;;;-2.49;95.85;100810.90;131529;1296;23927;-84
2023/11/23 00:50:58;;;;;;;51.60;27.30;;;;;;;-2.48;95.93;100816.38;131433;1299;22678;-82
2023/11/23 00:53:59;;;;;;;55.30;29.00;;;;;;;-2.46;95.94;100816.67;131431;1292;22563;-81
2023/11/23 00:56:59;;;;;;;54.50;28.60;;;;;;;-2.43;96.02;100825.36;131156;1298;24290;-83
2023/11/23 01:00:00;;;;;;;59.10;30.60;;;;;;;-2.41;96.02;100816.45;131182;1301;23189;-83
2023/11/23 01:03:01;;;;;;;54.30;28.70;;;;;;;-2.39;95.74;100814.10;131317;1295;22590;-81
2023/11/23 01:06:01;;;;;;;;;;;;;;;-2.36;95.94;100803.23;131472;1301;22664;-83
2023/11/23 01:09:02;;;;;;;;;;;;;;;-2.34;95.93;100790.66;131527;1298;22656;-82
2023/11/23 01:12:08;;;;;;;54.50;27.20;;;;;;;-2.36;95.76;100780.68;131174;1294;23063;-79
2023/11/23 01:15:09;;;;;;;59.60;30.10;;;;;;;-2.39;96.05;100769.23;131364;1298;22584;-80
2023/11/23 01:18:09;;;;;;;;;;;;;;;-2.41;95.91;100760.69;131440;1299;22580;-82
2023/11/23 01:21:10;;;;;;;61.60;30.40;;;;;;;-2.43;95.93;100748.79;131552;1293;22559;-85
2023/11/23 01:24:11;;;;;;;59.40;31.30;;;;;;;-2.44;96.06;100741.41;131258;1300;28358;-85
2023/11/23 01:27:12;;;;;;;58.70;31.10;;;;;;;-2.47;95.99;100733.38;131107;1301;25350;-82
2023/11/23 01:30:13;;;;;;;60.00;31.40;;;;;;;-2.49;96.53;100726.36;131245;1289;22598;-80
2023/11/23 01:33:15;;;;;;;61.30;30.10;;;;;;;-2.51;96.74;100723.48;131152;1298;24410;-81
2023/11/23 01:36:16;;;;;;;58.10;30.20;;;;;;;-2.51;96.53;100721.92;131524;1302;22613;-84
2023/11/23 01:39:17;;;;;;;50.80;27.70;;;;;;;-2.50;96.64;100722.74;131378;1298;22617;-80
2023/11/23 01:42:18;;;;;;;54.90;29.10;;;;;;;-2.46;96.72;100728.48;131401;1298;22580;-82
2023/11/23 01:45:18;;;;;;;54.60;29.30;;;;;;;-2.43;96.40;100728.33;131559;1296;24283;-80
2023/11/23 01:48:20;;;;;;;55.90;28.50;;;;;;;-2.40;96.53;100722.13;131515;1297;22578;-81
2023/11/23 01:51:23;;;;;;;58.70;29.90;;;;;;;-2.38;96.29;100711.33;131374;1293;24310;-82
2023/11/23 01:54:24;;;;;;;52.50;27.20;;;;;;;-2.38;96.22;100694.48;131470;1293;23016;-81
2023/11/23 01:57:32;;;;;;;49.80;28.00;;;;;;;-2.37;96.36;100688.73;131514;1293;22560;-81
2023/11/23 02:00:33;;;;;;;55.30;27.90;;;;;;;-2.37;96.10;100680.42;130990;1299;25587;-84
2023/11/23 02:03:34;;;;;;;;;;;;;;;-2.40;96.00;100676.37;131430;1288;22526;-79
2023/11/23 02:06:34;;;;;;;;;;;;;;;-2.42;96.20;100666.63;131371;1299;23154;-81
2023/11/23 02:09:35;;;;;;;52.40;27.80;;;;;;;-2.43;96.63;100664.77;131309;1291;25440;-82
2023/11/23 02:12:36;;;;;;;52.30;28.70;;;;;;;-2.45;96.51;100662.58;131270;1295;22602;-82
2023/11/23 02:15:36;;;;;;;49.40;27.70;;;;;;;-2.43;96.65;100654.86;130943;1289;231751;-81
2023/11/23 02:18:37;;;;;;;55.20;27.40;;;;;;;-2.45;96.71;100652.19;131499;1298;22560;-78
2023/11/23 02:21:38;;;;;;;52.90;26.70;;;;;;;-2.45;96.86;100660.38;131524;1289;23026;-80
2023/11/23 02:24:40;;;;;;;58.40;30.90;;;;;;;-2.45;96.86;100665.00;131433;1292;22733;-83
2023/11/23 02:27:41;;;;;;;54.70;29.60;;;;;;;-2.44;96.75;100665.30;131561;1295;22585;-80
2023/11/23 02:30:42;;;;;;;53.50;28.50;;;;;;;-2.43;96.98;100663.35;131462;1300;22698;-84
2023/11/23 02:33:43;;;;;;;;;;;;;;;-2.41;96.93;100654.60;131479;1289;22543;-83
2023/11/23 02:36:44;;;;;;;59.70;31.20;;;;;;;-2.39;96.99;100653.64;131347;1289;24101;-80
2023/11/23 02:39:45;;;;;;;57.50;30.60;;;;;;;-2.38;96.94;100643.70;131397;1298;22594;-83
2023/11/23 02:42:46;;;;;;;54.60;29.60;;;;;;;-2.37;97.19;100640.38;131576;1299;24285;-82
2023/11/23 02:45:46;;;;;;;;;;;;;;;-2.34;96.92;100627.96;131615;1298;22636;-84
2023/11/23 02:48:48;;;;;;;62.30;30.20;;;;;;;-2.34;97.11;100604.57;131540;1289;22595;-80
2023/11/23 02:51:48;;;;;;;62.10;30.30;;;;;;;-2.36;97.34;100597.86;131550;1298;22609;-82
2023/11/23 02:54:49;;;;;;;64.90;32.10;;;;;;;-2.36;97.67;100590.95;131379;1289;22742;-80
2023/11/23 02:57:50;;;;;;;63.20;32.20;;;;;;;-2.36;97.70;100592.54;131514;1289;22972;-80
2023/11/23 03:00:51;;;;;;;57.60;30.20;;;;;;;-2.35;98.05;100590.94;131364;1292;22668;-78
2023/11/23 03:03:54;;;;;;;57.90;31.40;;;;;;;-2.34;97.90;100587.56;131314;1291;23340;-81
2023/11/23 03:06:55;;;;;;;53.60;28.10;;;;;;;-2.30;97.76;100587.55;131329;1289;22792;-82
2023/11/23 03:09:55;;;;;;;54.70;30.10;;;;;;;-2.26;98.06;100577.64;131206;1304;22574;-80
2023/11/23 03:12:56;;;;;;;56.00;29.30;;;;;;;-2.21;98.09;100574.98;131281;1290;22592;-81
2023/11/23 03:15:57;;;;;;;53.40;28.20;;;;;;;-2.17;98.17;100567.48;131420;1298;22560;-82
2023/11/23 03:18:58;;;;;;;55.50;29.40;;;;;;;-2.14;98.12;100554.89;131183;1304;22559;-82
2023/11/23 03:21:58;;;;;;;;;;;;;;;-2.11;98.25;100546.08;131165;1289;22542;-81
2023/11/23 03:24:59;;;;;;;55.70;28.10;;;;;;;-2.10;98.26;100538.55;131295;1298;22736;-83
2023/11/23 03:27:59;;;;;;;54.60;29.20;;;;;;;-2.08;98.32;100528.92;131150;1293;22563;-84
2023/11/23 03:31:00;;;;;;;55.00;27.60;;;;;;;-2.04;98.56;100523.56;131388;1301;23242;-81
2023/11/23 03:34:01;;;;;;;55.50;28.10;;;;;;;-2.01;98.25;100516.98;131300;1294;24260;-83
2023/11/23 03:37:01;;;;;;;48.50;26.40;;;;;;;-1.97;98.45;100517.45;131357;1298;22601;-82
2023/11/23 03:40:02;;;;;;;51.00;26.70;;;;;;;-1.94;98.61;100509.31;131510;1294;22669;-84
2023/11/23 03:43:04;;;;;;;52.10;27.20;;;;;;;-1.89;98.50;100508.55;131467;1289;24234;-80
2023/11/23 03:46:04;;;;;;;45.90;24.50;;;;;;;-1.82;98.73;100503.36;131537;1295;22610;-82
2023/11/23 03:49:05;;;;;;;46.90;25.00;;;;;;;-1.74;98.70;100494.98;131291;1298;22563;-82
2023/11/23 03:52:05;;;;;;;41.50;23.90;;;;;;;-1.66;98.86;100485.20;131346;1289;22616;-79
2023/11/23 03:55:06;;;;;;;42.30;22.50;;;;;;;-1.59;98.54;100480.15;131755;1288;24438;-84
2023/11/23 03:58:07;;;;;;;39.10;21.20;;;;;;;-1.52;98.71;100475.94;131473;1298;25406;-82
2023/11/23 04:01:09;;;;;;;39.80;22.30;;;;;;;-1.44;98.65;100470.49;131401;1295;25023;-83
2023/11/23 04:04:09;;;;;;;38.60;21.90;;;;;;;-1.36;98.42;100459.80;131324;1283;23904;-80
2023/11/23 04:07:10;;;;;;;37.70;21.40;;;;;;;-1.28;98.18;100458.89;131269;1298;22587;-81
2023/11/23 04:10:11;;;;;;;41.20;21.00;;;;;;;-1.22;98.32;100460.29;131614;1304;24760;-81
2023/11/23 04:13:13;;;;;;;;;;;;;;;-1.16;98.38;100454.42;131373;1290;22572;-80
2023/11/23 04:16:13;;;;;;;39.40;20.60;;;;;;;-1.11;98.20;100447.52;131436;1301;22570;-80
2023/11/23 04:19:14;;;;;;;34.60;20.60;;;;;;;-1.06;98.14;100442.40;131512;1301;22554;-84
2023/11/23 04:22:15;;;;;;;38.60;21.40;;;;;;;-1.01;98.21;100441.81;131637;1289;25791;-82
2023/11/23 04:25:15;;;;;;;37.50;20.60;;;;;;;-0.97;98.08;100435.79;131604;1298;25391;-83
2023/11/23 04:28:16;;;;;;;42.00;21.30;;;;;;;-0.92;97.98;100427.89;131576;1298;22691;-81
2023/11/23 04:31:17;;;;;;;34.90;20.20;;;;;;;-0.86;98.00;100416.13;131452;1298;22585;-80
2023/11/23 04:34:17;;;;;;;35.60;20.00;;;;;;;-0.81;98.23;100414.11;131395;1298;23489;-83
2023/11/23 04:37:18;;;;;;;35.70;21.20;;;;;;;-0.77;98.25;100400.33;131313;1298;22687;-82
2023/11/23 04:40:18;;;;;;;38.40;20.90;;;;;;;-0.72;98.05;100385.06;131337;1295;23688;-80
2023/11/23 04:43:19;;;;;;;43.40;21.30;;;;;;;-0.67;97.79;100373.19;131475;1291;22691;-81
2023/11/23 04:46:20;;;;;;;36.60;20.70;;;;;;;-0.64;97.77;100358.02;131614;1291;22688;-86
2023/11/23 04:49:21;;;;;;;36.00;20.60;;;;;;;-0.60;97.93;100346.66;131449;1298;22622;-82
2023/11/23 04:52:21;;;;;;;37.80;19.50;;;;;;;-0.56;97.68;100348.17;131160;1289;22578;-82
2023/11/23 04:55:22;;;;;;;37.20;20.40;;;;;;;-0.52;97.50;100341.85;131254;1289;22598;-81
2023/11/23 04:58:22;;;;;;;36.90;19.70;;;;;;;-0.48;97.78;100331.69;131505;1296;22557;-82
2023/11/23 05:01:23;;;;;;;37.30;21.50;;;;;;;-0.43;97.70;100324.16;131555;1298;22594;-78
2023/11/23 05:04:24;;;;;;;34.50;19.50;;;;;;;-0.39;97.58;100317.83;131335;1298;22688;-81
2023/11/23 05:07:25;;;;;;;36.40;21.20;;;;;;;-0.35;97.35;100312.91;131413;1299;22563;-80
2023/11/23 05:10:26;;;;;;;34.90;18.90;;;;;;;-0.32;97.22;100305.02;131301;1298;22686;-79
2023/11/23 05:13:26;;;;;;;34.10;19.20;;;;;;;-0.29;97.16;100302.23;131395;1297;22663;-86
2023/11/23 05:16:26;;;;;;;35.60;20.70;;;;;;;-0.25;97.20;100293.17;131433;1294;22570;-84
2023/11/23 05:19:27;;;;;;;33.60;20.10;;;;;;;-0.24;96.95;100275.84;131051;1295;23398;-83
2023/11/23 05:22:27;;;;;;;34.70;19.70;;;;;;;-0.20;96.80;100272.30;131317;1293;22651;-82
2023/11/23 05:25:28;;;;;;;35.20;20.00;;;;;;;-0.16;97.08;100263.92;131151;1291;22602;-79
2023/11/23 05:28:29;;;;;;;35.10;20.60;;;;;;;-0.13;96.83;100254.86;131210;1294;22577;-82
2023/11/23 05:31:29;;;;;;;35.00;19.90;;;;;;;-0.11;97.00;100254.73;131305;1294;22585;-85
2023/11/23 05:34:30;;;;;;;31.80;19.90;;;;;;;-0.07;96.89;100262.66;131378;1299;22596;-83
2023/11/23 05:37:30;;;;;;;32.50;18.60;;;;;;;-0.05;96.84;100260.30;131201;1291;22585;-80
2023/11/23 05:40:31;;;;;;;37.90;21.00;;;;;;;-0.03;96.73;100256.34;131123;1291;22576;-80
2023/11/23 05:43:31;;;;;;;31.80;19.30;;;;;;;-0.01;96.93;100257.44;131376;1298;23602;-80
2023/11/23 05:46:32;;;;;;;35.20;20.20;;;;;;;0.01;96.63;100254.89;131341;1289;22607;-83
2023/11/23 05:49:32;;;;;;;36.60;21.00;;;;;;;0.04;96.71;100258.34;131463;1298;22588;-83
2023/11/23 05:52:34;;;;;;;34.80;20.40;;;;;;;0.06;96.77;100254.72;131416;1295;25001;-81
2023/11/23 05:55:34;;;;;;;34.80;20.30;;;;;;;0.09;96.87;100245.53;131429;1294;22594;-80
2023/11/23 05:58:35;;;;;;;38.50;21.00;;;;;;;0.10;96.92;100238.60;131269;1293;22628;-80
2023/11/23 06:01:35;;;;;;;32.00;19.10;;;;;;;0.13;96.82;100240.89;131439;1288;22661;-82
2023/11/23 06:04:36;;;;;;;38.50;21.50;;;;;;;0.14;96.94;100242.37;131452;1291;22563;-81
2023/11/23 06:07:36;;;;;;;37.10;21.20;;;;;;;0.17;96.87;100236.64;131480;1289;23181;-82
2023/11/23 06:10:37;;;;;;;40.30;20.60;;;;;;;0.19;96.87;100231.83;131467;1298;22659;-80
2023/11/23 06:13:37;;;;;;;;;;;;;;;0.21;97.07;100226.61;131353;1301;24336;-84
2023/11/23 06:16:38;;;;;;;35.60;19.90;;;;;;;0.24;96.92;100220.90;131514;1298;22623;-81
2023/11/23 06:19:39;;;;;;;36.60;20.60;;;;;;;0.25;96.82;100210.90;131445;1294;22934;-81
2023/11/23 06:22:40;;;;;;;;;;;;;;;0.27;96.90;100206.40;131524;1289;24295;-82
2023/11/23 06:25:40;;;;;;;35.40;19.90;;;;;;;0.29;96.77;100202.29;131249;1294;25390;-84
2023/11/23 06:28:41;;;;;;;35.90;20.40;;;;;;;0.32;96.97;100204.55;131472;1288;22611;-82
2023/11/23 06:31:41;;;;;;;33.50;19.20;;;;;;;0.34;96.90;100212.42;131438;1288;22578;-79
2023/11/23 06:34:42;;;;;;;32.30;18.60;;;;;;;0.35;96.91;100210.77;131405;1291;25141;-82
2023/11/23 06:37:42;;;;;;;35.70;20.40;;;;;;;0.37;96.85;100199.86;131398;1289;24422;-84
2023/11/23 06:40:43;;;;;;;37.40;19.20;;;;;;;0.38;97.02;100189.29;131530;1293;25695;-80
2023/11/23 06:43:43;;;;;;;35.50;19.10;;;;;;;0.41;96.76;100184.24;131591;1289;26613;-79
2023/11/23 06:46:44;;;;;;;31.50;19.10;;;;;;;0.43;96.93;100181.70;131543;1295;22604;-79
2023/11/23 06:49:45;;;;;;;33.30;18.70;;;;;;;0.46;96.88;100175.28;131736;1298;22563;-80
2023/11/23 06:52:45;;;;;;;;;;;;;;;0.47;96.97;100168.77;131447;1289;24473;-81
2023/11/23 06:55:46;;;;;;;33.40;18.90;;;;;;;0.48;97.14;100166.78;131324;1298;25271;-81
2023/11/23 06:58:46;;;;;;;36.10;19.60;;;;;;;0.47;97.39;100165.59;131247;1298;22606;-81
2023/11/23 07:01:46;;;;;;;31.80;19.10;;;;;;;0.47;97.59;100157.44;131422;1298;22633;-81
2023/11/23 07:04:47;;;;;;;33.60;19.60;;;;;;;0.48;97.58;100149.90;131476;1289;22608;-78
2023/11/23 07:07:48;;;;;;;32.50;19.00;;;;;;;0.49;97.49;100143.54;131584;1288;22571;-80
2023/11/23 07:10:48;;;;;;;33.60;19.30;;;;;;;0.51;97.72;100140.95;131521;1293;22587;-79
2023/11/23 07:13:49;;;;;;;34.40;19.30;;;;;;;0.54;97.89;100139.21;131512;1295;26195;-81
2023/11/23 07:16:54;;;;;;;;;;;;;;;0.57;97.78;100136.20;131468;1291;22695;-81
2023/11/23 07:19:56;;;;;;;29.30;17.90;;;;;;;0.62;97.90;100137.11;131413;1297;23988;-82
2023/11/23 07:22:56;;;;;;;32.70;19.70;;;;;;;0.66;97.95;100140.85;131258;1294;22591;-79
2023/11/23 07:25:57;;;;;;;36.20;18.60;;;;;;;0.70;97.98;100141.77;131467;1298;22667;-79
2023/11/23 07:28:58;;;;;;;34.60;19.80;;;;;;;0.74;98.11;100143.23;131331;1291;22557;-79
2023/11/23 07:31:58;;;;;;;40.10;19.40;;;;;;;0.78;98.01;100142.48;131437;1297;22610;-79
2023/11/23 07:35:00;;;;;;;35.00;18.70;;;;;;;0.81;98.04;100141.39;131129;1298;25348;-77
2023/11/23 07:38:04;;;;;;;31.60;17.40;;;;;;;0.84;98.11;100129.50;130778;1293;23911;-80
2023/11/23 07:41:06;;;;;;;28.80;17.40;;;;;;;0.88;97.92;100129.95;131577;1294;25316;-80
2023/11/23 07:44:07;;;;;;;29.50;17.20;;;;;;;0.93;97.88;100130.00;131784;1288;22594;-79
2023/11/23 07:47:11;;;;;;;29.80;17.10;;;;;;;0.96;97.91;100128.16;131774;1289;22548;-80
2023/11/23 07:50:15;;;;;;;27.80;16.70;;;;;;;1.00;98.00;100120.23;131715;1301;23002;-78
2023/11/23 07:53:16;;;;;;;26.60;16.30;;;;;;;1.05;97.99;100119.54;131440;1289;22565;-80
2023/11/23 07:56:17;;;;;;;25.90;16.50;;;;;;;1.09;97.95;100116.81;131552;1294;22563;-79
2023/11/23 07:59:18;;;;;;;28.40;16.40;;;;;;;1.14;98.28;100108.33;131647;1294;22574;-80
2023/11/23 08:02:19;;;;;;;24.10;14.60;;;;;;;1.18;98.19;100103.18;131332;1291;22579;-78
2023/11/23 08:05:19;;;;;;;24.80;14.30;;;;;;;1.22;98.12;100097.08;131282;1290;23110;-80
2023/11/23 08:08:21;;;;;;;25.20;13.90;;;;;;;1.29;98.13;100086.34;131456;1288;25389;-80
2023/11/23 08:11:22;;;;;;;19.80;13.20;;;;;;;1.35;98.01;100083.81;131535;1298;22617;-79
2023/11/23 08:14:22;;;;;;;22.50;13.90;;;;;;;1.43;98.02;100075.98;131453;1298;22597;-79
2023/11/23 08:17:23;;;;;;;22.90;13.20;;;;;;;1.50;97.93;100072.48;130672;1297;22693;-78
2023/11/23 08:20:26;;;;;;;24.60;15.00;;;;;;;1.58;97.97;100072.05;130681;1283;22556;-78
2023/11/23 08:23:27;;;;;;;20.70;13.30;;;;;;;1.66;98.09;100067.17;130750;1298;22649;-80
2023/11/23 08:26:28;;;;;;;23.10;13.00;;;;;;;1.71;97.64;100062.89;130604;1289;22598;-79
2023/11/23 08:29:29;;;;;;;20.30;12.80;;;;;;;1.79;97.63;100062.02;130500;1291;22640;-78
2023/11/23 08:32:30;;;;;;;22.10;14.00;;;;;;;1.86;97.53;100059.96;130641;1297;22565;-80
2023/11/23 08:35:30;;;;;;;19.80;12.70;;;;;;;1.93;97.43;100055.91;130618;1298;22559;-78
2023/11/23 08:38:31;;;;;;;19.20;12.20;;;;;;;2.01;97.13;100047.67;130763;1297;24298;-78
2023/11/23 08:41:31;;;;;;;18.80;13.00;;;;;;;2.10;96.94;100047.33;131111;1298;23016;-78
2023/11/23 08:44:32;;;;;;;21.50;11.60;;;;;;;2.21;96.79;100052.79;130914;1298;22683;-78
2023/11/23 08:47:33;;;;;;;23.60;12.20;;;;;;;2.31;96.97;100053.95;131762;1291;22568;-81
2023/11/23 08:50:33;;;;;;;;;;;;;;;2.40;96.76;100045.30;131572;1291;22558;-80
2023/11/23 08:53:34;;;;;;;17.80;12.00;;;;;;;2.45;96.49;100049.39;131525;1292;24091;-79
2023/11/23 08:56:38;;;;;;;16.70;11.50;;;;;;;2.52;96.29;100049.25;130907;1288;25475;-79
2023/11/23 08:59:38;;;;;;;27.40;12.60;;;;;;;2.57;96.08;100051.79;130882;1298;23419;-78
2023/11/23 09:02:39;;;;;;;20.70;11.00;;;;;;;2.62;95.70;100050.74;130637;1287;22588;-80
2023/11/23 09:05:40;;;;;;;20.30;10.90;;;;;;;2.66;95.75;100037.82;130413;1291;22659;-80
2023/11/23 09:08:40;;;;;;;18.20;11.80;;;;;;;2.76;96.22;100034.13;130563;1298;24284;-80
2023/11/23 09:11:41;;;;;;;17.60;11.10;;;;;;;2.88;95.93;100028.81;130636;1291;22579;-81
2023/11/23 09:14:42;;;;;;;;;;;;;;;2.98;95.80;100020.20;130593;1289;22538;-78
2023/11/23 09:17:42;;;;;;;19.20;10.60;;;;;;;3.04;95.76;100017.13;131266;1288;22610;-80
2023/11/23 09:20:43;;;;;;;15.50;10.40;;;;;;;3.09;95.64;100014.58;131286;1290;26274;-79
2023/11/23 09:23:44;;;;;;;16.30;9.90;;;;;;;3.14;95.18;100011.61;131417;1294;23397;-79
2023/11/23 09:26:46;;;;;;;15.10;9.10;;;;;;;3.20;95.63;100006.08;131483;1298;23421;-79
2023/11/23 09:29:47;;;;;;;16.00;9.80;;;;;;;3.26;95.47;100004.87;130874;1297;22571;-80
2023/11/23 09:32:47;;;;;;;15.60;9.60;;;;;;;3.32;95.16;99993.73;131678;1298;24625;-78
2023/11/23 09:35:48;;;;;;;14.90;10.10;;;;;;;3.38;95.55;99990.75;131519;1289;22689;-79
2023/11/23 09:38:49;;;;;;;14.80;9.20;;;;;;;3.47;95.57;99989.39;131655;1292;22625;-77
2023/11/23 09:41:50;;;;;;;13.90;9.30;;;;;;;3.58;95.65;99990.02;131677;1298;24323;-79
2023/11/23 09:44:56;;;;;;;16.20;9.90;;;;;;;3.73;95.80;99983.59;130918;1295;26143;-80
2023/11/23 09:47:59;;;;;;;16.00;10.40;;;;;;;3.79;95.51;99970.13;131614;1295;22666;-79
2023/11/23 09:50:59;;;;;;;19.30;10.20;;;;;;;3.87;95.52;99960.23;134310;1296;22344;-79
2023/11/23 09:54:01;;;;;;;;;;;;;;;3.95;95.56;99957.03;132863;1298;23352;-78
2023/11/23 09:57:01;;;;;;;14.80;8.90;;;;;;;4.04;95.56;99947.91;132819;1289;22572;-81
2023/11/23 10:00:09;;;;;;;14.80;7.70;;;;;;;4.14;95.05;99945.01;131564;1294;26538;-80
2023/11/23 10:03:13;;;;;;;12.10;8.30;;;;;;;4.23;94.62;99936.16;131545;1288;25587;-79
2023/11/23 10:06:14;;;;;;;10.80;8.10;;;;;;;4.29;94.66;99915.36;130883;1298;24389;-79
2023/11/23 10:09:16;;;;;;;11.50;8.10;;;;;;;4.39;94.82;99919.90;131363;1296;25648;-78
2023/11/23 10:12:19;;;;;;;12.40;8.50;;;;;;;4.58;95.06;99909.48;131434;1289;23573;-80
2023/11/23 10:15:20;;;;;;;14.40;8.20;;;;;;;4.79;94.70;99891.56;131515;1289;22569;-81
2023/11/23 10:18:20;;;;;;;13.30;8.70;;;;;;;4.85;93.48;99887.67;131413;1289;22566;-81
2023/11/23 10:21:21;;;;;;;12.80;8.80;;;;;;;4.86;93.22;99870.08;131476;1298;22647;-79
2023/11/23 10:24:23;;;;;;;11.50;8.40;;;;;;;4.88;93.08;99855.70;131486;1289;22617;-81
2023/11/23 10:27:24;;;;;;;11.10;7.60;;;;;;;4.90;92.79;99849.96;131448;1298;22563;-79
2023/11/23 10:30:26;;;;;;;12.10;7.20;;;;;;;4.96;93.15;99846.26;131369;1297;22581;-80
2023/11/23 10:33:29;;;;;;;9.50;6.60;;;;;;;4.99;93.10;99843.33;131444;1288;24292;-79
2023/11/23 10:36:30;;;;;;;9.50;7.20;;;;;;;5.03;93.37;99837.57;131408;1298;22585;-79
2023/11/23 10:39:31;;;;;;;9.90;7.30;;;;;;;5.06;93.43;99830.62;131485;1298;24606;-78
2023/11/23 10:42:35;;;;;;;;;;;;;;;5.11;92.68;99821.52;131582;1298;23322;-78
2023/11/23 10:45:37;;;;;;;9.80;7.00;;;;;;;5.13;92.28;99805.77;131673;1298;24402;-80
2023/11/23 10:48:38;;;;;;;10.40;6.80;;;;;;;5.14;92.35;99792.55;131594;1288;22567;-80
2023/11/23 10:51:40;;;;;;;11.70;7.10;;;;;;;5.20;92.37;99785.48;131461;1288;22573;-79
2023/11/23 10:54:41;;;;;;;16.60;8.60;;;;;;;5.30;91.78;99770.55;131477;1289;24232;-81
2023/11/23 10:57:55;;;;;;;;;;;;;;;5.34;90.78;99762.81;132420;1295;22544;-81
2023/11/23 11:00:57;;;;;;;16.90;9.70;;;;;;;5.33;91.04;99759.09;131240;1294;22859;-79
2023/11/23 11:03:58;;;;;;;10.70;6.20;;;;;;;5.34;90.72;99753.30;131470;1296;22564;-79
2023/11/23 11:07:04;;;;;;;11.80;7.60;;;;;;;5.38;90.80;99748.43;131552;1289;24241;-78
2023/11/23 11:10:05;;;;;;;14.80;8.10;;;;;;;5.45;90.87;99737.62;131400;1294;23046;-80
2023/11/23 11:13:16;;;;;;;12.20;7.50;;;;;;;5.53;91.01;99734.39;131379;1294;24406;-79
2023/11/23 11:16:17;;;;;;;12.40;7.30;;;;;;;5.61;90.88;99729.56;131645;1298;22574;-80
2023/11/23 11:19:18;;;;;;;10.50;7.00;;;;;;;5.66;90.79;99729.27;130494;1292;23165;-81
2023/11/23 11:22:18;;;;;;;10.30;7.00;;;;;;;5.70;91.18;99724.91;130668;1282;22968;-80
2023/11/23 11:25:21;;;;;;;9.00;5.90;;;;;;;5.73;91.27;99719.73;130578;1299;26136;-80
2023/11/23 11:28:22;;;;;;;8.00;6.00;;;;;;;5.73;90.77;99712.81;131432;1291;23162;-82
2023/11/23 11:31:29;;;;;;;9.10;5.90;;;;;;;5.74;90.41;99709.42;130911;1289;25323;-81
2023/11/23 11:34:34;;;;;;;9.70;7.10;;;;;;;5.75;90.92;99718.30;131364;1295;23368;-79
2023/11/23 11:37:36;;;;;;;11.00;8.00;;;;;;;5.72;90.62;99704.01;132968;1295;24306;-81
2023/11/23 11:40:37;;;;;;;11.30;8.40;;;;;;;5.64;90.33;99699.34;132361;1293;24289;-80
2023/11/23 11:43:40;;;;;;;12.00;8.00;;;;;;;5.57;90.46;99700.73;131741;1298;22609;-80
2023/11/23 11:46:41;;;;;;;13.20;8.10;;;;;;;5.50;90.24;99692.38;131336;1297;23203;-80
2023/11/23 11:49:41;;;;;;;11.30;7.80;;;;;;;5.46;90.66;99693.70;131527;1295;23275;-82
2023/11/23 11:52:42;;;;;;;10.40;7.80;;;;;;;5.42;90.93;99697.54;131626;1289;22594;-78
2023/11/23 11:55:47;;;;;;;12.60;7.70;;;;;;;5.40;91.06;99687.11;131484;1298;22570;-80
2023/11/23 11:58:49;;;;;;;8.40;6.10;;;;;;;5.46;91.10;99672.27;131331;1297;25543;-80
2023/11/23 12:01:50;;;;;;;10.20;7.10;;;;;;;5.55;90.45;99666.83;131680;1293;23417;-80
2023/11/23 12:04:58;;;;;;;8.00;6.10;;;;;;;5.64;90.48;99665.31;131573;1297;22658;-79
2023/11/23 12:07:58;;;;;;;9.30;6.40;;;;;;;5.69;90.29;99655.34;131602;1297;23455;-81
2023/11/23 12:10:59;;;;;;;9.40;6.70;;;;;;;5.72;89.95;99657.88;131693;1288;25437;-81
2023/11/23 12:13:59;;;;;;;11.60;7.50;;;;;;;5.70;90.34;99653.78;131601;1285;23915;-80
2023/11/23 12:17:12;;;;;;;12.40;7.10;;;;;;;5.66;90.40;99649.67;131574;1295;24395;-81
2023/11/23 12:20:13;;;;;;;11.00;7.60;;;;;;;5.63;90.67;99649.05;131324;1291;22563;-82
2023/11/23 12:23:13;;;;;;;11.50;8.20;;;;;;;5.60;91.01;99640.67;131559;1288;22582;-80
2023/11/23 12:26:14;;;;;;;11.90;6.10;;;;;;;5.58;91.05;99637.81;131698;1293;22771;-80
2023/11/23 12:29:26;;;;;;;9.40;6.50;;;;;;;5.58;90.88;99640.61;131576;1289;22597;-81
2023/11/23 12:32:27;;;;;;;8.60;6.50;;;;;;;5.56;90.88;99640.72;131687;1289;25186;-78
2023/11/23 12:35:27;;;;;;;9.10;6.60;;;;;;;5.54;91.27;99639.20;131510;1291;22581;-78
2023/11/23 12:38:28;;;;;;;9.90;7.20;;;;;;;5.46;91.94;99638.89;131406;1289;22659;-82
2023/11/23 12:41:29;;;;;;;9.10;6.20;;;;;;;5.37;92.02;99630.59;131409;1295;23296;-78
2023/11/23 12:44:29;;;;;;;24.80;11.80;;;;;;;5.32;92.28;99627.25;131015;1299;25293;-78
2023/11/23 12:47:30;;;;;;;16.90;9.60;;;;;;;5.26;92.49;99626.91;131360;1296;22597;-80
2023/11/23 12:50:31;;;;;;;12.70;7.20;;;;;;;5.20;92.62;99615.10;131005;1288;22636;-79
2023/11/23 12:53:31;;;;;;;9.70;6.30;;;;;;;5.13;92.38;99610.75;130854;1298;22904;-79
2023/11/23 12:56:35;;;;;;;10.60;6.20;;;;;;;5.09;92.66;99600.83;131649;1298;22601;-80
2023/11/23 12:59:36;;;;;;;12.60;6.90;;;;;;;5.06;93.07;99593.98;131196;1298;24254;-79
2023/11/23 13:02:38;;;;;;;11.70;7.80;;;;;;;5.02;93.20;99578.89;131233;1288;25391;-79
2023/11/23 13:05:38;;;;;;;9.10;6.40;;;;;;;4.98;93.44;99568.36;131235;1295;24299;-78
2023/11/23 13:08:40;;;;;;;11.10;6.10;;;;;;;4.98;93.26;99578.58;130681;1288;22618;-82
2023/11/23 13:11:40;;;;;;;8.20;6.50;;;;;;;4.99;93.21;99572.35;131511;1289;25556;-79
2023/11/23 13:14:41;;;;;;;8.30;5.40;;;;;;;5.00;93.38;99569.96;130672;1290;22667;-79
2023/11/23 13:17:43;;;;;;;7.20;5.70;;;;;;;5.01;93.61;99564.45;130715;1289;23218;-79
2023/11/23 13:20:43;;;;;;;7.90;6.50;;;;;;;4.99;93.46;99556.38;130658;1291;22786;-77
2023/11/23 13:23:44;;;;;;;8.40;6.50;;;;;;;4.94;93.32;99555.29;130616;1282;22644;-79
2023/11/23 13:26:44;;;;;;;8.70;6.60;;;;;;;4.86;92.47;99555.98;131252;1298;23405;-79
2023/11/23 13:29:45;;;;;;;8.80;5.90;;;;;;;4.80;92.29;99545.91;130771;1298;22681;-79
2023/11/23 13:32:46;;;;;;;10.50;6.70;;;;;;;4.75;92.65;99538.84;131295;1295;25562;-78
2023/11/23 13:35:46;;;;;;;;;;;;;;;4.69;92.62;99532.58;130657;1295;23003;-79
2023/11/23 13:38:49;;;;;;;14.40;7.10;;;;;;;4.63;92.18;99521.56;131371;1289;25504;-78
2023/11/23 13:41:49;;;;;;;12.00;7.00;;;;;;;4.60;92.31;99524.45;130821;1289;25108;-78
2023/11/23 13:44:50;;;;;;;11.60;7.00;;;;;;;4.58;91.78;99516.98;130544;1298;22581;-78
2023/11/23 13:47:51;;;;;;;12.30;7.70;;;;;;;4.55;91.96;99515.79;130633;1288;22610;-79
2023/11/23 13:50:51;;;;;;;9.00;6.90;;;;;;;4.55;92.07;99506.73;130660;1294;25591;-78
2023/11/23 13:53:52;;;;;;;11.40;7.40;;;;;;;4.55;91.81;99496.88;130631;1291;25307;-78